1NE2 weather

Witthuhn Airport
Callaway, Nebraska, United States

Public forecast

Using degrees Fahrenheit for public forecast. Weather courtesy of forecast.io.

Closest aviation weather report (METAR) to Witthuhn Airport

Closest report is Broken Bow Municipal Airport, 14.1 nm (26.1 km) ENE. Retrieved 2019/10/15 00:53 UTC (22 minutes ago):

KBBW 150053Z AUTO 00000KT 10SM CLR 11/03 A2977 RMK AO2 SLP091 T01110028

Closest aviation forecast (TAF) to Witthuhn Airport

Closest forecast is North Platte Regional Airport Lee Bird Field, 36.6 nm (67.8 km) WSW. Retrieved 2019-10-15 00:22 UTC (53 minutes ago):

TAF KLBF 142320Z 1500/1524 35010KT P6SM SCT200 FM151500 33014G22KT P6SM SKC FM151800 33020G28KT P6SM SKC